Time;durP1;ratioP1;P1;durP2;ratioP2;P2;SDS_P1;SDS_P2;PMS_P1;PMS_P2;Temp;Humidity;BMP_temperature;BMP_pressure;BME280_temperature;BME280_humidity;BME280_pressure;Samples;Min_cycle;Max_cycle;Signal;HPM_P1;HPM_P2
2021/08/01 00:02:06;;;;;;;14.85;8.45;;;;;;;22.81;82.21;100053.47;5010071;28;20088;-67
2021/08/01 00:04:32;;;;;;;13.80;8.82;;;;;;;23.00;82.29;100082.91;5011304;28;20399;-67
2021/08/01 00:06:57;;;;;;;12.88;8.95;;;;;;;23.16;81.51;100080.88;5011313;28;20062;-65
2021/08/01 00:09:23;;;;;;;19.85;9.00;;;;;;;22.69;83.99;100083.56;5011569;28;20029;-67
2021/08/01 00:11:48;;;;;;;13.85;9.32;;;;;;;22.51;86.90;100083.91;5011823;28;20025;-67
2021/08/01 00:14:14;;;;;;;14.65;9.82;;;;;;;22.84;85.79;100076.25;4993038;28;20038;-67
2021/08/01 00:16:40;;;;;;;13.35;9.00;;;;;;;23.08;84.91;100062.56;5011026;28;20033;-68
2021/08/01 00:19:05;;;;;;;16.70;9.77;;;;;;;23.01;84.07;100057.47;5011043;28;20168;-67
2021/08/01 00:21:31;;;;;;;15.50;9.63;;;;;;;22.98;85.29;100044.38;5011059;28;20462;-65
2021/08/01 00:23:56;;;;;;;13.77;9.98;;;;;;;23.26;84.00;100039.41;5010943;28;20060;-68
2021/08/01 00:26:22;;;;;;;18.40;9.85;;;;;;;23.33;83.22;100048.91;5011000;28;20030;-68
2021/08/01 00:28:47;;;;;;;12.88;9.07;;;;;;;23.09;82.91;99992.34;5004213;28;20031;-67
2021/08/01 00:31:13;;;;;;;18.23;10.30;;;;;;;23.27;84.58;100046.41;4992019;28;20081;-66
2021/08/01 00:33:39;;;;;;;13.73;9.38;;;;;;;23.19;84.53;100036.06;4995508;28;20077;-62
2021/08/01 00:36:04;;;;;;;11.90;9.02;;;;;;;23.30;84.06;100027.03;4994684;28;20037;-67
2021/08/01 00:38:30;;;;;;;16.83;10.40;;;;;;;23.52;83.30;100046.69;4995815;28;20031;-67
2021/08/01 00:40:55;;;;;;;16.50;9.90;;;;;;;23.52;83.07;100033.53;5012317;28;20089;-67
2021/08/01 00:43:21;;;;;;;17.48;9.73;;;;;;;23.98;81.76;100057.94;5001675;28;20022;-67
2021/08/01 00:45:46;;;;;;;16.45;9.27;;;;;;;24.27;79.59;100055.47;4995460;28;20026;-68
2021/08/01 00:48:12;;;;;;;12.82;9.57;;;;;;;24.36;79.73;100053.44;4995906;28;20030;-67
2021/08/01 00:50:40;;;;;;;16.17;9.63;;;;;;;24.48;78.20;100060.16;4995588;28;20076;-66
2021/08/01 00:53:07;;;;;;;17.70;10.48;;;;;;;24.11;79.41;100061.13;4995188;28;20547;-66
2021/08/01 00:55:33;;;;;;;13.70;9.55;;;;;;;23.87;79.90;100057.31;4995224;28;20034;-66
2021/08/01 00:57:59;;;;;;;15.70;9.98;;;;;;;24.07;79.19;100048.94;4997882;28;20045;-65
2021/08/01 01:02:57;;;;;;;17.20;10.23;;;;;;;24.30;79.09;100050.09;5015095;28;20124;-67
2021/08/01 01:05:34;;;;;;;14.90;10.30;;;;;;;24.50;78.05;100039.88;5014829;28;20147;-67
2021/08/01 01:08:06;;;;;;;15.60;10.63;;;;;;;24.73;77.25;100037.53;5014758;28;20030;-67
2021/08/01 01:10:31;;;;;;;15.95;10.85;;;;;;;24.62;77.40;100030.72;5014597;28;20041;-65
2021/08/01 01:13:10;;;;;;;14.60;10.73;;;;;;;24.62;76.99;100030.72;5014638;28;20497;-66
2021/08/01 01:15:47;;;;;;;18.75;9.90;;;;;;;24.57;76.76;100006.25;5014740;28;20030;-66
2021/08/01 01:18:17;;;;;;;14.38;10.45;;;;;;;24.53;76.67;100017.81;5014872;28;20112;-67
2021/08/01 01:21:17;;;;;;;16.45;10.43;;;;;;;24.32;77.87;100051.78;5013614;28;20030;-67
2021/08/01 01:23:47;;;;;;;15.05;10.95;;;;;;;23.31;81.52;100019.09;5009773;28;20037;-65
2021/08/01 01:26:39;;;;;;;15.48;10.95;;;;;;;23.10;83.84;100033.56;5014424;28;20425;-65
2021/08/01 01:29:14;;;;;;;15.15;12.00;;;;;;;23.07;84.46;100037.13;5013991;28;20064;-62
2021/08/01 01:31:51;;;;;;;15.43;12.23;;;;;;;23.30;82.95;100027.03;5013580;28;20148;-62
2021/08/01 01:34:33;;;;;;;15.32;11.98;;;;;;;23.61;81.76;100031.59;5014388;28;20028;-66
2021/08/01 01:37:07;;;;;;;15.57;12.18;;;;;;;23.87;81.13;100031.81;5014787;28;20030;-65
2021/08/01 01:39:36;;;;;;;15.77;11.13;;;;;;;23.85;80.27;100032.75;5014253;28;20088;-66
2021/08/01 01:42:03;;;;;;;14.38;11.50;;;;;;;23.49;82.45;100044.16;5013792;28;20044;-65
2021/08/01 01:44:30;;;;;;;19.20;12.20;;;;;;;23.33;83.16;100043.63;5012936;28;20404;-68
2021/08/01 01:46:57;;;;;;;15.35;12.32;;;;;;;22.81;85.86;100053.47;5014618;28;20045;-65
2021/08/01 01:49:24;;;;;;;16.55;13.38;;;;;;;22.40;88.59;100045.50;5012768;28;20022;-65
2021/08/01 01:51:50;;;;;;;18.20;14.77;;;;;;;22.33;88.88;100054.38;5012952;28;20073;-65
2021/08/01 01:54:17;;;;;;;15.90;13.35;;;;;;;22.39;89.58;100054.31;5013985;28;20029;-65
2021/08/01 01:56:43;;;;;;;15.75;14.07;;;;;;;22.20;90.73;100048.47;5012570;28;20492;-64
2021/08/01 01:59:11;;;;;;;18.65;15.70;;;;;;;22.00;90.91;100030.41;5014183;28;20022;-64
2021/08/01 02:01:38;;;;;;;21.58;14.52;;;;;;;22.26;91.13;100055.38;5013833;28;20507;-65
2021/08/01 02:04:04;;;;;;;21.13;15.57;;;;;;;22.41;89.81;100065.66;5013787;28;20021;-65
2021/08/01 02:06:30;;;;;;;18.70;15.10;;;;;;;22.65;88.84;100079.22;5013978;28;20535;-65
2021/08/01 02:09:33;;;;;;;19.75;14.52;;;;;;;22.98;86.79;100074.22;5013416;28;20060;-65
2021/08/01 02:12:23;;;;;;;17.48;13.82;;;;;;;23.21;85.06;100075.50;5013594;28;20117;-65
2021/08/01 02:14:51;;;;;;;26.02;14.60;;;;;;;23.23;84.98;100071.09;5013584;28;20097;-63
2021/08/01 02:17:22;;;;;;;17.20;13.55;;;;;;;23.18;83.85;100042.22;5013258;28;20030;-65
2021/08/01 02:19:50;;;;;;;18.02;14.23;;;;;;;23.09;83.16;100022.19;5013267;28;20156;-63
2021/08/01 02:22:17;;;;;;;18.52;13.65;;;;;;;23.30;83.86;100070.03;5013671;28;20045;-65
2021/08/01 02:24:44;;;;;;;18.55;14.05;;;;;;;22.91;84.50;100027.84;5013500;28;20041;-65
2021/08/01 02:27:11;;;;;;;22.45;13.20;;;;;;;23.11;83.26;100048.47;5013086;28;20496;-62
2021/08/01 02:29:37;;;;;;;16.58;13.82;;;;;;;23.15;82.23;100051.91;4999812;28;20026;-65
2021/08/01 02:32:04;;;;;;;15.75;12.93;;;;;;;23.16;82.81;100057.16;5001840;28;20460;-65
2021/08/01 02:34:30;;;;;;;17.25;13.38;;;;;;;23.09;83.08;100047.63;5013130;28;20026;-66
2021/08/01 02:36:57;;;;;;;16.80;13.23;;;;;;;23.07;83.03;100052.94;5013284;28;20072;-64
2021/08/01 02:39:23;;;;;;;18.08;13.98;;;;;;;23.20;82.60;100057.97;5013156;28;20022;-65
2021/08/01 02:41:52;;;;;;;18.63;15.15;;;;;;;23.48;82.48;100055.59;4994475;28;20077;-66
2021/08/01 02:44:27;;;;;;;16.25;14.63;;;;;;;23.62;81.26;100055.25;5012879;28;20072;-64
2021/08/01 02:46:53;;;;;;;17.92;14.85;;;;;;;23.47;81.59;100045.94;5013362;28;20037;-64
2021/08/01 02:49:22;;;;;;;19.55;15.10;;;;;;;23.57;81.73;100062.41;5013100;28;20506;-62
2021/08/01 02:51:52;;;;;;;17.75;14.75;;;;;;;23.77;81.30;100063.72;5012972;28;20022;-62
2021/08/01 02:54:19;;;;;;;19.13;14.60;;;;;;;23.89;80.89;100066.06;5012511;28;20029;-63
2021/08/01 02:56:47;;;;;;;17.08;14.48;;;;;;;24.02;80.54;100077.19;5012767;28;20472;-65
2021/08/01 02:59:13;;;;;;;20.30;14.60;;;;;;;23.96;79.62;100043.06;5012577;28;20030;-65
2021/08/01 03:01:39;;;;;;;16.25;14.38;;;;;;;24.22;79.73;100071.41;5012700;28;20033;-63
2021/08/01 03:04:05;;;;;;;18.58;14.35;;;;;;;24.29;78.85;100078.25;5012525;28;20057;-63
2021/08/01 03:06:33;;;;;;;17.05;13.35;;;;;;;24.17;78.23;100047.78;5012449;28;20054;-63
2021/08/01 03:09:03;;;;;;;15.43;13.68;;;;;;;24.22;78.06;100069.66;5012609;28;20022;-62
2021/08/01 03:11:33;;;;;;;16.30;13.63;;;;;;;24.18;78.22;100059.22;5012200;28;20411;-63
2021/08/01 03:13:58;;;;;;;15.68;13.95;;;;;;;24.29;78.05;100053.63;5012687;28;20030;-68
2021/08/01 03:16:24;;;;;;;17.38;14.75;;;;;;;24.25;78.40;100066.06;5012596;28;20464;-62
2021/08/01 03:18:49;;;;;;;18.50;12.73;;;;;;;24.21;78.02;100065.28;5012320;28;20030;-66
2021/08/01 03:21:15;;;;;;;16.35;12.75;;;;;;;24.25;77.10;100068.69;5012385;28;20052;-62
2021/08/01 03:23:40;;;;;;;24.40;12.90;;;;;;;24.14;77.23;100055.78;5012185;28;20116;-63
2021/08/01 03:26:06;;;;;;;21.88;13.88;;;;;;;24.32;77.29;100075.53;5011930;28;20026;-63
2021/08/01 03:28:31;;;;;;;20.60;13.63;;;;;;;24.40;77.34;100080.63;5012394;28;20400;-62
2021/08/01 03:30:57;;;;;;;18.33;13.63;;;;;;;24.33;77.57;100079.91;5012221;28;20078;-67
2021/08/01 03:33:22;;;;;;;20.73;14.70;;;;;;;24.42;77.15;100085.84;5012010;28;20026;-66
2021/08/01 03:35:47;;;;;;;19.65;14.45;;;;;;;24.46;77.61;100076.94;5011987;28;20487;-62
2021/08/01 03:38:15;;;;;;;15.27;13.68;;;;;;;24.42;79.11;100078.78;5011846;28;20406;-66
2021/08/01 03:40:41;;;;;;;25.08;15.20;;;;;;;24.35;80.24;100077.22;5011890;28;20026;-62
2021/08/01 03:43:07;;;;;;;22.02;15.02;;;;;;;24.23;80.29;100073.13;5011123;28;20104;-66
2021/08/01 03:45:32;;;;;;;17.48;14.77;;;;;;;24.29;80.26;100072.97;5012384;28;20032;-64
2021/08/01 03:47:58;;;;;;;20.17;15.40;;;;;;;24.33;79.77;100079.03;5012293;28;20105;-65
2021/08/01 03:50:23;;;;;;;27.67;15.65;;;;;;;24.28;79.95;100084.44;5011898;28;20036;-62
2021/08/01 03:52:48;;;;;;;19.40;16.75;;;;;;;24.22;79.12;100088.13;5011929;28;20034;-67
2021/08/01 03:55:14;;;;;;;19.20;15.98;;;;;;;23.92;78.81;100083.59;5011911;28;20104;-63
2021/08/01 03:57:39;;;;;;;19.00;16.85;;;;;;;23.81;79.26;100087.31;5012031;28;20029;-63
2021/08/01 04:00:06;;;;;;;20.42;17.77;;;;;;;23.70;79.68;100092.84;5026050;28;20042;-62
2021/08/01 04:02:35;;;;;;;23.92;18.00;;;;;;;23.57;80.17;100099.31;5011807;28;20037;-69
2021/08/01 04:05:01;;;;;;;22.40;18.70;;;;;;;23.18;80.56;100046.59;5011935;28;20036;-63
2021/08/01 04:07:26;;;;;;;19.27;16.88;;;;;;;23.30;81.27;100095.50;5010910;28;20404;-65
2021/08/01 04:09:51;;;;;;;23.45;17.92;;;;;;;22.93;82.27;100074.28;5011677;28;20030;-63
2021/08/01 04:12:17;;;;;;;20.70;17.33;;;;;;;23.12;82.56;100109.91;5009789;28;20053;-61
2021/08/01 04:14:42;;;;;;;20.92;18.10;;;;;;;23.16;82.91;100101.09;5011983;28;20037;-65
2021/08/01 04:17:09;;;;;;;21.73;17.75;;;;;;;23.10;83.06;100089.75;5011672;28;20022;-70
2021/08/01 04:19:34;;;;;;;21.58;17.75;;;;;;;23.02;84.02;100106.59;5011399;28;20120;-63
2021/08/01 04:22:00;;;;;;;21.88;18.65;;;;;;;22.96;85.01;100112.84;5011631;28;20030;-65
2021/08/01 04:24:26;;;;;;;23.30;19.35;;;;;;;23.00;85.17;100103.13;5011204;28;20399;-64
2021/08/01 04:26:52;;;;;;;22.55;18.42;;;;;;;22.99;84.60;100118.06;5010354;28;20033;-65
2021/08/01 04:29:17;;;;;;;24.42;18.75;;;;;;;23.09;84.95;100119.59;5011491;28;20037;-65
2021/08/01 04:31:42;;;;;;;21.58;19.40;;;;;;;23.03;84.90;100092.53;5011513;28;20017;-64
2021/08/01 04:34:11;;;;;;;24.17;20.13;;;;;;;23.09;84.92;100109.06;5011374;28;20045;-67
2021/08/01 04:36:36;;;;;;;22.65;19.50;;;;;;;23.04;85.42;100120.59;5011429;28;20018;-70
2021/08/01 04:39:02;;;;;;;27.92;19.95;;;;;;;23.02;86.23;100120.63;5011250;28;20034;-68
2021/08/01 04:41:27;;;;;;;21.33;19.17;;;;;;;23.11;86.03;100116.94;5011436;28;20097;-65
2021/08/01 04:43:53;;;;;;;22.45;19.38;;;;;;;23.21;85.77;100118.50;5011446;28;20037;-65
2021/08/01 04:46:18;;;;;;;23.55;19.75;;;;;;;23.29;85.89;100117.47;5011413;28;20500;-66
2021/08/01 04:48:43;;;;;;;22.45;17.48;;;;;;;23.28;84.20;100124.53;5011507;28;20033;-65
2021/08/01 04:51:09;;;;;;;20.20;17.88;;;;;;;23.15;85.29;100097.53;5011384;28;20025;-68
2021/08/01 04:53:36;;;;;;;20.52;18.50;;;;;;;23.32;86.12;100109.53;5010961;28;20096;-65
2021/08/01 04:56:02;;;;;;;23.58;18.45;;;;;;;23.22;86.06;100108.84;5011479;28;20029;-67
2021/08/01 04:58:27;;;;;;;21.10;17.73;;;;;;;23.30;85.24;100108.69;5011054;28;20030;-65
2021/08/01 05:00:52;;;;;;;20.10;17.65;;;;;;;23.23;85.59;100106.19;5010978;28;20476;-66
2021/08/01 05:03:18;;;;;;;20.42;17.40;;;;;;;23.33;85.33;100111.25;5011142;28;20129;-65
2021/08/01 05:05:43;;;;;;;21.85;17.50;;;;;;;23.32;84.74;100117.44;5011072;28;20046;-65
2021/08/01 05:08:09;;;;;;;18.85;16.75;;;;;;;23.43;84.05;100116.28;5011157;28;20022;-64
2021/08/01 05:10:34;;;;;;;18.92;16.27;;;;;;;23.44;82.83;100106.63;5011227;28;20025;-63
2021/08/01 05:13:00;;;;;;;20.63;17.42;;;;;;;23.38;83.38;100098.84;5011226;28;20032;-68
2021/08/01 05:15:25;;;;;;;18.38;16.45;;;;;;;23.61;83.72;100110.66;5011235;28;20080;-69
2021/08/01 05:17:51;;;;;;;19.15;16.98;;;;;;;23.66;83.29;100099.06;5011243;28;20512;-64
2021/08/01 05:20:16;;;;;;;21.27;17.05;;;;;;;23.65;83.52;100100.00;5014715;28;20062;-63
2021/08/01 05:22:42;;;;;;;19.13;17.08;;;;;;;23.69;83.64;100099.03;5014552;28;20030;-66
2021/08/01 05:25:08;;;;;;;22.48;17.50;;;;;;;23.85;82.79;100107.44;5014943;28;20030;-65
2021/08/01 05:27:34;;;;;;;21.95;16.77;;;;;;;23.65;82.41;100060.47;5014754;28;20018;-64
2021/08/01 05:30:00;;;;;;;18.33;16.27;;;;;;;24.10;82.86;100112.16;5014503;28;20062;-63
2021/08/01 05:32:26;;;;;;;21.55;17.30;;;;;;;24.33;82.38;100108.06;5014380;28;20109;-69
2021/08/01 05:34:51;;;;;;;21.92;16.17;;;;;;;24.40;80.31;100112.28;5014376;28;20455;-65
2021/08/01 05:37:17;;;;;;;18.42;15.30;;;;;;;24.33;79.42;100079.03;5014110;28;20022;-63
2021/08/01 05:39:42;;;;;;;22.88;16.88;;;;;;;24.60;80.19;100114.38;5014353;28;20091;-68
2021/08/01 05:42:08;;;;;;;17.30;15.07;;;;;;;24.73;78.77;100120.22;5014525;28;20465;-65
2021/08/01 05:44:33;;;;;;;21.20;15.10;;;;;;;24.61;77.91;100091.50;5013017;28;20030;-67
2021/08/01 05:46:59;;;;;;;21.92;16.00;;;;;;;24.87;77.66;100112.78;5014284;28;20021;-64
2021/08/01 05:49:25;;;;;;;20.23;15.88;;;;;;;24.96;78.08;100116.94;5012969;28;20034;-71
2021/08/01 05:51:51;;;;;;;20.55;14.95;;;;;;;25.13;77.84;100112.94;5013797;28;20037;-67
2021/08/01 05:54:16;;;;;;;19.50;14.50;;;;;;;25.22;76.68;100111.81;5013983;28;20412;-68
2021/08/01 05:56:41;;;;;;;17.08;14.77;;;;;;;25.18;75.90;100113.69;5014047;28;20018;-64
2021/08/01 05:59:07;;;;;;;17.05;13.20;;;;;;;25.10;76.03;100116.56;5014055;28;20026;-64
2021/08/01 06:01:32;;;;;;;18.63;13.45;;;;;;;25.32;75.25;100119.44;5013975;28;20026;-65
2021/08/01 06:03:58;;;;;;;16.65;12.75;;;;;;;25.46;74.79;100120.81;5013709;28;20080;-65
2021/08/01 06:06:23;;;;;;;18.23;13.15;;;;;;;25.34;74.52;100122.88;5013683;28;20046;-65
2021/08/01 06:08:53;;;;;;;15.52;12.55;;;;;;;25.38;74.21;100120.19;5013827;28;20022;-65
2021/08/01 06:11:20;;;;;;;;;;;;;;;25.17;75.24;100114.59;5014213;28;20033;-65
2021/08/01 06:13:45;;;;;;;16.70;13.25;;;;;;;25.33;75.47;100110.59;5013584;28;19953;-64
2021/08/01 06:16:12;;;;;;;17.65;12.60;;;;;;;25.15;75.07;100109.34;5013618;28;20065;-63
2021/08/01 06:18:39;;;;;;;18.30;12.68;;;;;;;25.22;74.08;100107.38;5013595;28;20026;-65
2021/08/01 06:21:22;;;;;;;15.82;13.13;;;;;;;25.16;76.17;100094.34;5013502;28;20033;-64
2021/08/01 06:23:52;;;;;;;18.00;14.00;;;;;;;25.52;75.76;100120.63;5013591;28;20026;-64
2021/08/01 06:26:19;;;;;;;17.35;13.13;;;;;;;25.39;75.30;100104.28;5013634;28;20026;-65
2021/08/01 06:28:45;;;;;;;16.00;13.75;;;;;;;25.65;76.74;100132.53;5012881;28;20033;-67
2021/08/01 06:31:11;;;;;;;22.58;14.98;;;;;;;25.66;75.73;100129.00;5013231;28;20034;-65
2021/08/01 06:33:39;;;;;;;16.98;13.10;;;;;;;25.80;75.03;100123.28;5013106;28;20077;-67
2021/08/01 06:36:07;;;;;;;16.73;12.18;;;;;;;25.94;73.36;100122.81;5013423;28;20057;-68
2021/08/01 06:38:33;;;;;;;13.52;11.93;;;;;;;25.95;72.57;100119.25;5013239;28;20160;-65
2021/08/01 06:40:58;;;;;;;18.17;12.10;;;;;;;26.07;71.81;100120.69;5013191;28;20109;-67
2021/08/01 06:43:24;;;;;;;17.70;12.30;;;;;;;26.15;72.75;100125.72;5013288;28;20026;-68
2021/08/01 06:45:49;;;;;;;17.73;12.60;;;;;;;26.34;72.87;100125.09;4994927;28;20038;-65
2021/08/01 06:48:15;;;;;;;14.68;11.65;;;;;;;26.26;70.83;100120.94;5012957;28;20404;-65
2021/08/01 06:50:40;;;;;;;21.88;12.43;;;;;;;26.10;70.73;100086.19;5013190;28;20044;-65
2021/08/01 06:53:07;;;;;;;16.67;12.60;;;;;;;26.40;70.34;100115.16;5013173;28;20503;-67
2021/08/01 06:55:32;;;;;;;16.55;11.98;;;;;;;26.47;70.24;100113.19;5011562;28;20038;-64
2021/08/01 06:57:58;;;;;;;17.52;11.73;;;;;;;26.45;70.00;100105.28;5012857;28;20026;-65
2021/08/01 07:00:24;;;;;;;19.15;11.57;;;;;;;26.52;69.22;100086.53;5013007;28;20113;-67
2021/08/01 07:02:54;;;;;;;16.13;12.15;;;;;;;26.72;68.63;100105.22;5013118;28;20034;-67
2021/08/01 07:05:20;;;;;;;17.02;11.05;;;;;;;26.77;68.44;100107.75;5012950;28;20053;-65
2021/08/01 07:07:45;;;;;;;19.75;12.55;;;;;;;26.77;68.26;100103.31;5004301;28;20129;-68
2021/08/01 07:10:11;;;;;;;15.82;10.88;;;;;;;26.81;67.04;100096.13;4991895;28;20030;-64
2021/08/01 07:12:41;;;;;;;21.15;11.93;;;;;;;27.04;67.87;100102.34;4992951;28;20030;-70
2021/08/01 07:15:08;;;;;;;15.48;11.75;;;;;;;27.22;68.15;100101.66;4993043;28;20031;-65
2021/08/01 07:17:33;;;;;;;18.90;11.75;;;;;;;27.26;65.61;100083.84;4991652;28;20457;-65
2021/08/01 07:19:59;;;;;;;16.40;10.52;;;;;;;27.39;66.26;100082.44;4993293;28;20030;-67
2021/08/01 07:22:24;;;;;;;13.93;10.68;;;;;;;27.33;63.11;100066.78;4993075;28;20050;-64
2021/08/01 07:24:50;;;;;;;13.48;10.63;;;;;;;27.64;64.78;100093.88;4992799;28;20039;-65
2021/08/01 07:27:15;;;;;;;13.63;10.60;;;;;;;27.75;63.85;100091.66;4992917;28;20059;-70
2021/08/01 07:29:40;;;;;;;16.75;11.50;;;;;;;27.98;63.20;100100.50;4991534;28;20030;-69
2021/08/01 07:32:07;;;;;;;17.08;11.88;;;;;;;28.10;63.16;100092.03;4992399;28;20022;-69
2021/08/01 07:34:33;;;;;;;13.95;10.60;;;;;;;28.24;63.27;100089.66;4992700;28;20037;-66
2021/08/01 07:36:58;;;;;;;15.50;10.48;;;;;;;28.32;61.75;100093.78;4992571;28;20022;-68
2021/08/01 07:39:24;;;;;;;13.95;10.85;;;;;;;28.25;61.51;100066.63;4992651;28;20045;-65
2021/08/01 07:41:49;;;;;;;19.52;10.80;;;;;;;28.33;60.98;100067.16;4998741;28;20468;-66
2021/08/01 07:44:15;;;;;;;14.27;10.30;;;;;;;28.53;58.17;100076.06;5007607;28;20030;-67
2021/08/01 07:46:40;;;;;;;13.18;10.43;;;;;;;28.76;59.75;100098.94;5001470;28;20046;-64
2021/08/01 07:49:05;;;;;;;15.85;9.88;;;;;;;28.84;58.81;100088.84;5001836;28;20025;-70
2021/08/01 07:51:31;;;;;;;17.42;10.68;;;;;;;29.10;58.96;100096.53;5002868;28;20040;-65
2021/08/01 07:53:56;;;;;;;15.25;11.07;;;;;;;29.16;59.83;100097.13;5010511;28;20038;-64
2021/08/01 07:56:22;;;;;;;20.17;10.75;;;;;;;29.05;58.67;100083.50;5010987;28;20018;-67
2021/08/01 07:58:47;;;;;;;18.33;10.98;;;;;;;29.28;57.38;100085.06;5004291;28;20021;-67
2021/08/01 08:01:13;;;;;;;18.73;10.52;;;;;;;29.34;57.88;100091.91;5002592;28;20022;-64
2021/08/01 08:03:39;;;;;;;17.27;10.70;;;;;;;29.34;59.43;100075.97;5001178;28;20084;-68
2021/08/01 08:06:07;;;;;;;17.05;11.60;;;;;;;29.48;60.71;100073.50;5000771;28;20068;-65
2021/08/01 08:08:33;;;;;;;14.73;11.18;;;;;;;29.49;58.13;100077.88;5005011;28;20053;-67
2021/08/01 08:10:58;;;;;;;18.30;11.70;;;;;;;29.59;58.85;100074.78;5006622;28;20026;-67
2021/08/01 08:13:24;;;;;;;15.57;11.40;;;;;;;29.65;58.23;100074.50;5009446;28;20190;-67
2021/08/01 08:15:49;;;;;;;20.48;11.45;;;;;;;29.87;57.69;100082.28;5010724;28;20455;-67
2021/08/01 08:18:15;;;;;;;19.15;11.15;;;;;;;29.83;56.32;100070.91;5011285;28;20018;-67
2021/08/01 08:20:41;;;;;;;17.20;10.23;;;;;;;29.96;57.28;100073.84;5011190;28;20521;-67
2021/08/01 08:23:06;;;;;;;18.08;12.07;;;;;;;30.18;58.96;100070.97;5010649;28;20403;-66
2021/08/01 08:25:32;;;;;;;15.40;11.73;;;;;;;30.26;55.94;100083.03;5010876;28;20022;-67
2021/08/01 08:27:57;;;;;;;14.25;11.02;;;;;;;30.18;54.49;100078.94;5009303;28;20022;-66
2021/08/01 08:30:23;;;;;;;18.05;11.25;;;;;;;30.16;54.35;100074.66;5000335;28;20030;-64
2021/08/01 08:32:48;;;;;;;15.95;11.40;;;;;;;30.13;54.14;100043.72;4998337;28;20037;-66
2021/08/01 08:35:14;;;;;;;15.65;9.88;;;;;;;30.59;52.53;100076.91;4994280;28;20022;-65
2021/08/01 08:37:44;;;;;;;13.85;10.32;;;;;;;30.69;54.05;100082.59;4993724;28;20034;-67
2021/08/01 08:40:10;;;;;;;13.82;9.95;;;;;;;30.89;50.69;100079.69;4992890;28;20058;-67
2021/08/01 08:42:36;;;;;;;13.88;9.10;;;;;;;31.04;50.48;100071.81;5010319;28;20022;-66
2021/08/01 08:45:01;;;;;;;14.60;10.13;;;;;;;31.00;51.16;100072.94;5005445;28;20469;-66
2021/08/01 08:47:28;;;;;;;17.42;10.43;;;;;;;30.97;49.44;100064.16;5002652;28;20021;-65
2021/08/01 08:49:55;;;;;;;14.25;10.15;;;;;;;31.02;49.43;100069.25;4999247;28;20109;-66
2021/08/01 08:52:21;;;;;;;14.93;10.90;;;;;;;31.18;51.05;100071.97;5001009;28;20058;-66
2021/08/01 08:54:50;;;;;;;13.52;10.57;;;;;;;31.14;49.39;100065.94;5008470;28;20050;-66
2021/08/01 08:57:29;;;;;;;16.42;9.65;;;;;;;31.19;49.57;100070.16;5010628;28;20412;-66
2021/08/01 09:00:13;;;;;;;16.90;10.43;;;;;;;31.26;52.09;100067.03;5013681;28;20026;-66
2021/08/01 09:02:39;;;;;;;12.57;10.57;;;;;;;31.30;49.05;100063.28;5012895;28;20049;-66
2021/08/01 09:05:06;;;;;;;16.75;10.15;;;;;;;31.45;47.92;100053.56;5011784;28;20033;-66
2021/08/01 09:07:32;;;;;;;14.95;9.35;;;;;;;31.62;47.20;100046.38;5011888;28;20065;-67
2021/08/01 09:09:58;;;;;;;15.40;10.25;;;;;;;31.83;47.35;100054.09;5009431;28;20080;-67
2021/08/01 09:12:23;;;;;;;14.82;10.52;;;;;;;31.99;47.72;100062.94;5005278;28;20026;-67
2021/08/01 09:15:08;;;;;;;15.23;9.82;;;;;;;32.21;46.09;100062.53;5003491;28;20040;-68
2021/08/01 09:17:36;;;;;;;16.23;9.02;;;;;;;32.36;44.93;100066.09;5007130;28;20057;-70
2021/08/01 09:20:14;;;;;;;13.38;9.55;;;;;;;32.51;43.88;100066.09;5007703;28;20076;-67
2021/08/01 09:22:40;;;;;;;12.67;9.37;;;;;;;32.52;44.76;100068.66;5005127;28;20052;-68
2021/08/01 09:25:23;;;;;;;17.30;9.32;;;;;;;32.67;44.43;100069.53;5004229;28;20495;-68
2021/08/01 09:27:49;;;;;;;14.85;10.43;;;;;;;32.84;46.89;100054.31;5013431;28;20018;-68
2021/08/01 09:30:14;;;;;;;12.73;8.77;;;;;;;32.80;42.27;100058.13;5013384;28;20049;-67
2021/08/01 09:32:50;;;;;;;19.70;9.88;;;;;;;32.86;46.44;100055.94;5012860;28;20107;-67
2021/08/01 09:35:21;;;;;;;15.70;9.65;;;;;;;32.91;44.53;100047.59;5015889;28;20092;-65
2021/08/01 09:37:58;;;;;;;12.82;9.32;;;;;;;33.00;45.69;100040.81;5019140;28;20395;-65
2021/08/01 09:40:31;;;;;;;13.63;10.05;;;;;;;32.95;42.82;100043.78;5012164;28;20030;-66
2021/08/01 09:43:11;;;;;;;12.48;8.85;;;;;;;32.94;43.15;100036.72;5014146;28;20033;-69
2021/08/01 09:45:38;;;;;;;13.52;10.10;;;;;;;33.02;43.18;100033.56;5014463;28;20060;-67
2021/08/01 09:48:18;;;;;;;14.32;9.85;;;;;;;32.97;42.83;100031.16;4969275;28;20073;-66
2021/08/01 09:51:01;;;;;;;14.75;10.05;;;;;;;33.23;43.80;100029.47;5011277;28;20080;-67
2021/08/01 09:53:27;;;;;;;13.48;9.73;;;;;;;33.49;41.66;100024.25;5012020;28;20026;-67
2021/08/01 09:56:28;;;;;;;14.40;9.82;;;;;;;33.60;40.97;100018.22;5011786;28;20026;-67
2021/08/01 09:58:54;;;;;;;17.38;9.75;;;;;;;33.76;42.21;100006.44;4914278;29;20032;-66
2021/08/01 10:01:19;;;;;;;15.43;9.25;;;;;;;33.95;41.61;100008.78;4913771;29;20088;-67
2021/08/01 10:03:49;;;;;;;18.95;10.20;;;;;;;34.17;40.49;100016.16;4907946;29;20028;-65
2021/08/01 10:06:22;;;;;;;17.77;9.88;;;;;;;34.23;40.93;100015.75;4909717;29;20597;-67
2021/08/01 10:08:50;;;;;;;17.02;9.13;;;;;;;34.11;39.82;99995.16;4913108;29;20048;-69
2021/08/01 10:11:25;;;;;;;16.50;9.85;;;;;;;34.34;38.89;100010.56;4912877;29;20100;-66
2021/08/01 10:13:52;;;;;;;14.63;9.60;;;;;;;34.37;42.47;99990.72;4911457;29;20040;-67
2021/08/01 10:16:20;;;;;;;12.38;8.98;;;;;;;34.69;40.28;100011.66;4913566;29;20509;-65
2021/08/01 10:18:48;;;;;;;13.65;8.40;;;;;;;34.80;37.81;100014.44;4912958;29;20055;-66
2021/08/01 10:21:19;;;;;;;15.25;9.48;;;;;;;34.95;37.01;100007.13;4909740;29;20032;-67
2021/08/01 10:23:47;;;;;;;20.35;9.88;;;;;;;35.11;39.92;100011.38;4913066;29;20048;-65
2021/08/01 10:26:14;;;;;;;15.05;9.00;;;;;;;35.18;38.69;99993.00;4913589;29;20040;-65
2021/08/01 10:28:47;;;;;;;14.00;8.98;;;;;;;35.36;39.88;99994.31;4898052;29;20540;-64
2021/08/01 10:31:16;;;;;;;14.88;9.45;;;;;;;35.47;41.89;99993.53;4911264;29;20035;-68
2021/08/01 10:34:01;;;;;;;16.03;9.07;;;;;;;35.59;37.52;99991.72;4994921;28;20033;-67
2021/08/01 10:36:29;;;;;;;17.58;10.02;;;;;;;35.82;41.65;99994.50;4951933;28;20036;-66
2021/08/01 10:39:01;;;;;;;16.17;9.55;;;;;;;35.83;37.09;99978.28;4936462;28;20039;-68
2021/08/01 10:41:34;;;;;;;17.38;9.65;;;;;;;35.97;39.49;99977.22;4929223;28;20513;-67
2021/08/01 10:44:09;;;;;;;16.38;9.18;;;;;;;35.84;39.91;99934.31;4950890;28;20034;-68
2021/08/01 10:46:38;;;;;;;16.90;9.35;;;;;;;36.14;39.27;99977.72;4931363;28;20059;-68
2021/08/01 10:49:06;;;;;;;13.05;9.45;;;;;;;36.22;38.77;99969.94;4951390;28;20035;-66
2021/08/01 10:51:33;;;;;;;17.60;9.90;;;;;;;36.35;38.14;99967.97;4947203;28;20046;-67
2021/08/01 10:54:20;;;;;;;14.23;8.68;;;;;;;36.47;37.86;99970.69;4932838;28;20669;-67
2021/08/01 10:56:47;;;;;;;17.25;8.68;;;;;;;36.55;35.67;99973.59;4950757;28;20433;-66
2021/08/01 10:59:43;;;;;;;13.25;9.00;;;;;;;36.64;35.99;99969.31;4950693;28;20070;-68
2021/08/01 11:02:20;;;;;;;13.35;8.25;;;;;;;36.65;33.45;99976.41;4951399;28;20034;-64
2021/08/01 11:04:47;;;;;;;15.20;8.45;;;;;;;36.78;35.27;99970.91;4935163;29;20058;-65
2021/08/01 11:07:27;;;;;;;15.75;8.10;;;;;;;36.86;33.44;99963.94;4950617;28;20438;-66
2021/08/01 11:10:08;;;;;;;15.50;8.75;;;;;;;37.00;36.34;99954.75;4951161;28;20610;-66
2021/08/01 11:12:34;;;;;;;14.65;8.68;;;;;;;37.01;32.76;99956.44;4956074;28;20482;-67
2021/08/01 11:15:13;;;;;;;15.10;8.30;;;;;;;36.99;34.23;99952.19;5010584;28;20488;-66
2021/08/01 11:17:51;;;;;;;23.20;9.23;;;;;;;37.17;34.36;99952.47;5011517;28;20026;-66
2021/08/01 11:20:16;;;;;;;9.98;6.95;;;;;;;37.27;32.39;99945.31;5011181;28;20033;-66